Time,TemperatureF,DewpointF,PressureIn,WindDirection,WindDirectionDegrees,WindSpeedMPH,WindSpeedGustMPH,Humidity,HourlyPrecipIn,Conditions,Clouds,dailyrainin,SolarRadiationWatts/m^2,SoftwareType,DateUTC
2013-04-13 00:00:00,39.0,35.0,-100.00,SSW,202,8.0,-999.0,85,-99.99,,,-99.99,0.000000,,2013-04-13 04:00:00,
2013-04-13 00:42:00,39.0,35.0,-100.00,SSW,202,8.0,-999.0,85,-99.99,,,-99.99,0.000000,,2013-04-13 04:42:00,
2013-04-13 00:53:00,39.0,35.0,-100.00,SSW,202,8.0,-999.0,85,-99.99,,,-99.99,0.000000,,2013-04-13 04:53:00,
2013-04-13 01:00:00,39.0,35.0,-100.00,SSW,202,8.0,-999.0,85,-99.99,,,-99.99,0.000000,,2013-04-13 05:00:00,
2013-04-13 01:43:00,39.0,35.0,-100.00,SSW,202,8.0,-999.0,85,-99.99,,,-99.99,0.000000,,2013-04-13 05:43:00,
2013-04-13 01:53:00,39.0,35.0,-100.00,SSW,202,8.0,-999.0,85,-99.99,,,-99.99,0.000000,,2013-04-13 05:53:00,
2013-04-13 02:00:00,40.0,36.0,-100.00,SSW,202,8.0,-999.0,84,-99.99,,,-99.99,0.000000,,2013-04-13 06:00:00,
2013-04-13 02:49:00,40.0,36.0,-100.00,SSW,202,8.0,-999.0,84,-99.99,,,-99.99,0.000000,,2013-04-13 06:49:00,
2013-04-13 02:56:00,40.0,36.0,-100.00,SSW,202,8.0,-999.0,84,-99.99,,,-99.99,0.000000,,2013-04-13 06:56:00,
2013-04-13 03:00:00,40.0,35.0,-100.00,SSW,202,9.0,-999.0,81,-99.99,,,-99.99,0.000000,,2013-04-13 07:00:00,
2013-04-13 03:46:00,40.0,35.0,-100.00,SSW,202,9.0,-999.0,81,-99.99,,,-99.99,0.000000,,2013-04-13 07:46:00,
2013-04-13 03:58:00,40.0,35.0,-100.00,SSW,202,9.0,-999.0,81,-99.99,,,-99.99,0.000000,,2013-04-13 07:58:00,
2013-04-13 04:00:00,40.0,33.0,-100.00,SW,225,12.0,-999.0,76,-99.99,,,-99.99,0.000000,,2013-04-13 08:00:00,
2013-04-13 04:47:00,40.0,33.0,-100.00,SW,225,12.0,-999.0,76,-99.99,,,-99.99,0.000000,,2013-04-13 08:47:00,
2013-04-13 04:55:00,40.0,33.0,-100.00,SW,225,12.0,-999.0,76,-99.99,,,-99.99,0.000000,,2013-04-13 08:55:00,
2013-04-13 05:00:00,38.0,32.0,-100.00,SW,225,12.0,-999.0,79,-99.99,,,-99.99,0.000000,,2013-04-13 09:00:00,
2013-04-13 05:53:00,38.0,32.0,-100.00,SW,225,12.0,-999.0,79,-99.99,,,-99.99,0.000000,,2013-04-13 09:53:00,
2013-04-13 06:00:00,37.0,30.0,-100.00,SW,225,10.0,-999.0,73,-99.99,,,-99.99,0.000000,,2013-04-13 10:00:00,
2013-04-13 06:51:00,37.0,30.0,-100.00,SW,225,10.0,-999.0,73,-99.99,,,-99.99,0.000000,,2013-04-13 10:51:00,
2013-04-13 06:56:00,37.0,30.0,-100.00,SW,225,10.0,-999.0,73,-99.99,,,-99.99,0.000000,,2013-04-13 10:56:00,
2013-04-13 07:00:00,37.0,28.0,-100.00,SW,225,9.0,-999.0,69,-99.99,,,-99.99,1.160000,,2013-04-13 11:00:00,
2013-04-13 07:54:00,37.0,28.0,-100.00,SW,225,9.0,-999.0,69,-99.99,,,-99.99,1.160000,,2013-04-13 11:54:00,
2013-04-13 08:00:00,37.0,27.0,-100.00,SSW,202,10.0,-999.0,67,-99.99,,,-99.99,11.600000,,2013-04-13 12:00:00,
2013-04-13 08:49:00,37.0,27.0,-100.00,SSW,202,10.0,-999.0,67,-99.99,,,-99.99,11.600000,,2013-04-13 12:49:00,
2013-04-13 08:57:00,37.0,27.0,-100.00,SSW,202,10.0,-999.0,67,-99.99,,,-99.99,11.600000,,2013-04-13 12:57:00,
2013-04-13 09:00:00,37.0,29.0,-100.00,SSW,202,9.0,-999.0,73,-99.99,,,-99.99,56.840000,,2013-04-13 13:00:00,
2013-04-13 09:49:00,37.0,29.0,-100.00,SSW,202,9.0,-999.0,73,-99.99,,,-99.99,56.840000,,2013-04-13 13:49:00,
2013-04-13 09:58:00,37.0,29.0,-100.00,SSW,202,9.0,-999.0,73,-99.99,,,-99.99,56.840000,,2013-04-13 13:58:00,
2013-04-13 10:00:00,36.0,31.0,-100.00,South,180,8.0,-999.0,81,-99.99,,,-99.99,84.680000,,2013-04-13 14:00:00,
2013-04-13 10:48:00,36.0,31.0,-100.00,South,180,8.0,-999.0,81,-99.99,,,-99.99,84.680000,,2013-04-13 14:48:00,
2013-04-13 11:00:00,36.0,31.0,-100.00,SSW,202,10.0,-999.0,82,0.02,,,-99.99,150.800003,,2013-04-13 15:00:00,
2013-04-13 11:45:00,36.0,31.0,-100.00,SSW,202,10.0,-999.0,82,0.02,,,-99.99,150.800003,,2013-04-13 15:45:00,
2013-04-13 11:59:00,36.0,31.0,-100.00,SSW,202,10.0,-999.0,82,0.02,,,-99.99,150.800003,,2013-04-13 15:59:00,
2013-04-13 12:00:00,38.0,29.0,-100.00,SSW,202,12.0,-999.0,69,-99.99,,,-99.99,167.039993,,2013-04-13 16:00:00,
2013-04-13 12:48:00,38.0,29.0,-100.00,SSW,202,12.0,-999.0,69,-99.99,,,-99.99,167.039993,,2013-04-13 16:48:00,
2013-04-13 12:59:00,38.0,29.0,-100.00,SSW,202,12.0,-999.0,69,-99.99,,,-99.99,167.039993,,2013-04-13 16:59:00,
2013-04-13 13:00:00,39.0,27.0,-100.00,SSW,202,14.0,-999.0,61,-99.99,,,-99.99,229.679993,,2013-04-13 17:00:00,
2013-04-13 13:45:00,39.0,27.0,-100.00,SSW,202,14.0,-999.0,61,-99.99,,,-99.99,229.679993,,2013-04-13 17:45:00,
2013-04-13 14:00:00,40.0,27.0,-100.00,SSW,202,14.0,-999.0,59,-99.99,,,-99.99,277.239990,,2013-04-13 18:00:00,
2013-04-13 14:42:00,40.0,27.0,-100.00,SSW,202,14.0,-999.0,59,-99.99,,,-99.99,277.239990,,2013-04-13 18:42:00,
2013-04-13 14:53:00,40.0,27.0,-100.00,SSW,202,14.0,-999.0,59,-99.99,,,-99.99,277.239990,,2013-04-13 18:53:00,
2013-04-13 15:00:00,40.0,28.0,-100.00,SSW,202,12.0,-999.0,62,-99.99,,,-99.99,259.839996,,2013-04-13 19:00:00,
2013-04-13 15:42:00,40.0,28.0,-100.00,SSW,202,12.0,-999.0,62,-99.99,,,-99.99,259.839996,,2013-04-13 19:42:00,
2013-04-13 15:53:00,40.0,28.0,-100.00,SSW,202,12.0,-999.0,62,-99.99,,,-99.99,259.839996,,2013-04-13 19:53:00,
2013-04-13 16:00:00,40.0,29.0,-100.00,SSW,202,13.0,-999.0,62,-99.99,,,-99.99,277.239990,,2013-04-13 20:00:00,
2013-04-13 16:42:00,40.0,29.0,-100.00,SSW,202,13.0,-999.0,62,-99.99,,,-99.99,277.239990,,2013-04-13 20:42:00,
2013-04-13 16:53:00,40.0,29.0,-100.00,SSW,202,13.0,-999.0,62,-99.99,,,-99.99,277.239990,,2013-04-13 20:53:00,
2013-04-13 17:00:00,39.0,29.0,-100.00,SSW,202,13.0,-999.0,67,-99.99,,,-99.99,204.160004,,2013-04-13 21:00:00,
2013-04-13 17:43:00,39.0,29.0,-100.00,SSW,202,13.0,-999.0,67,-99.99,,,-99.99,204.160004,,2013-04-13 21:43:00,
2013-04-13 17:53:00,39.0,29.0,-100.00,SSW,202,13.0,-999.0,67,-99.99,,,-99.99,204.160004,,2013-04-13 21:53:00,
2013-04-13 18:00:00,38.0,29.0,-100.00,SSW,202,13.0,-999.0,70,-99.99,,,-99.99,112.519997,,2013-04-13 22:00:00,
2013-04-13 18:42:00,38.0,29.0,-100.00,SSW,202,13.0,-999.0,70,-99.99,,,-99.99,112.519997,,2013-04-13 22:42:00,
2013-04-13 18:53:00,38.0,29.0,-100.00,SSW,202,13.0,-999.0,70,-99.99,,,-99.99,112.519997,,2013-04-13 22:53:00,
2013-04-13 19:00:00,39.0,26.0,-100.00,SSW,202,14.0,-999.0,60,-99.99,,,-99.99,156.600006,,2013-04-13 23:00:00,
2013-04-13 19:43:00,39.0,26.0,-100.00,SSW,202,14.0,-999.0,60,-99.99,,,-99.99,156.600006,,2013-04-13 23:43:00,
2013-04-13 19:53:00,39.0,26.0,-100.00,SSW,202,14.0,-999.0,60,-99.99,,,-99.99,156.600006,,2013-04-13 23:53:00,
2013-04-13 21:00:00,38.0,25.0,-100.00,SSW,202,9.0,-999.0,59,-99.99,,,-99.99,0.000000,,2013-04-14 01:00:00,
2013-04-13 21:43:00,38.0,25.0,-100.00,SSW,202,9.0,-999.0,59,-99.99,,,-99.99,0.000000,,2013-04-14 01:43:00,
2013-04-13 21:53:00,38.0,25.0,-100.00,SSW,202,9.0,-999.0,59,-99.99,,,-99.99,0.000000,,2013-04-14 01:53:00,
2013-04-13 22:00:00,37.0,26.0,-100.00,SSW,202,8.0,-999.0,63,-99.99,,,-99.99,0.000000,,2013-04-14 02:00:00,
2013-04-13 22:43:00,37.0,26.0,-100.00,SSW,202,8.0,-999.0,63,-99.99,,,-99.99,0.000000,,2013-04-14 02:43:00,
2013-04-13 22:53:00,37.0,26.0,-100.00,SSW,202,8.0,-999.0,63,-99.99,,,-99.99,0.000000,,2013-04-14 02:53:00,
2013-04-13 23:00:00,37.0,26.0,-100.00,SSW,202,8.0,-999.0,64,-99.99,,,-99.99,0.000000,,2013-04-14 03:00:00,
2013-04-13 23:43:00,37.0,26.0,-100.00,SSW,202,8.0,-999.0,64,-99.99,,,-99.99,0.000000,,2013-04-14 03:43:00,
2013-04-13 23:53:00,37.0,26.0,-100.00,SSW,202,8.0,-999.0,64,-99.99,,,-99.99,0.000000,,2013-04-14 03:53:00,